Time;durP1;ratioP1;P1;durP2;ratioP2;P2;SDS_P1;SDS_P2;PMS_P1;PMS_P2;Temp;Humidity;BMP_temperature;BMP_pressure;BME280_temperature;BME280_humidity;BME280_pressure;Samples;Min_cycle;Max_cycle;Signal;HPM_P1;HPM_P2
2022/07/16 00:03:12;;;;;;;1999.90;999.90;;;22.80;69.70;;;;;;5052038;28;20541;-74
2022/07/16 00:05:37;;;;;;;1999.90;999.90;;;22.60;69.90;;;;;;5052314;28;20063;-74
2022/07/16 00:08:03;;;;;;;1999.90;999.90;;;22.40;70.70;;;;;;5053791;28;20025;-74
2022/07/16 00:10:29;;;;;;;1999.90;999.90;;;22.30;71.10;;;;;;5053424;28;20021;-74
2022/07/16 00:12:55;;;;;;;1999.90;999.90;;;22.10;71.40;;;;;;5053552;28;20135;-74
2022/07/16 00:15:21;;;;;;;1999.90;999.90;;;22.00;72.10;;;;;;5054027;28;20060;-74
2022/07/16 00:17:46;;;;;;;1999.90;999.90;;;21.90;72.40;;;;;;5053240;28;20067;-74
2022/07/16 00:20:12;;;;;;;1999.90;999.90;;;21.70;72.70;;;;;;5052982;28;20037;-74
2022/07/16 00:22:38;;;;;;;1999.90;999.90;;;21.70;73.10;;;;;;5052995;28;20079;-74
2022/07/16 00:25:06;;;;;;;1999.90;999.90;;;21.50;73.10;;;;;;5053548;28;20426;-74
2022/07/16 00:27:32;;;;;;;1999.90;999.90;;;21.50;73.70;;;;;;5053477;28;20021;-74
2022/07/16 00:29:57;;;;;;;1999.90;999.90;;;21.40;73.90;;;;;;5053596;28;20048;-74
2022/07/16 00:32:23;;;;;;;1999.90;999.90;;;21.20;74.40;;;;;;5052539;28;20407;-74
2022/07/16 00:34:48;;;;;;;1999.90;999.90;;;21.20;75.00;;;;;;5052967;28;20036;-74
2022/07/16 00:37:14;;;;;;;1999.90;999.90;;;21.10;74.70;;;;;;5052728;28;20025;-74
2022/07/16 00:39:40;;;;;;;1999.90;999.90;;;21.10;74.80;;;;;;5053136;28;20100;-74
2022/07/16 00:42:07;;;;;;;1999.90;999.90;;;21.00;74.90;;;;;;5044401;28;20022;-73
2022/07/16 00:44:32;;;;;;;1999.90;999.90;;;20.90;75.10;;;;;;5053164;28;20021;-73
2022/07/16 00:46:58;;;;;;;1999.90;999.90;;;20.90;75.80;;;;;;5053154;28;20074;-73
2022/07/16 00:49:24;;;;;;;1999.90;999.90;;;20.90;75.40;;;;;;5052871;28;20107;-74
2022/07/16 00:51:51;;;;;;;1999.90;999.90;;;20.80;75.60;;;;;;5066432;28;20494;-73
2022/07/16 00:54:18;;;;;;;1999.90;999.90;;;20.80;75.60;;;;;;5052931;28;20108;-73
2022/07/16 00:56:44;;;;;;;1999.90;999.90;;;20.80;75.40;;;;;;5053115;28;20041;-73
2022/07/16 00:59:11;;;;;;;1999.90;999.90;;;20.80;75.30;;;;;;5053213;28;20032;-74
2022/07/16 01:01:37;;;;;;;1999.90;999.90;;;20.80;75.10;;;;;;5052090;28;20047;-74
2022/07/16 01:04:04;;;;;;;1999.90;999.90;;;20.80;75.20;;;;;;5051381;28;20484;-74
2022/07/16 01:06:30;;;;;;;1999.90;999.90;;;20.80;75.10;;;;;;5052885;28;20025;-73
2022/07/16 01:08:57;;;;;;;1999.90;999.90;;;20.80;75.00;;;;;;5052700;28;20021;-73
2022/07/16 01:11:22;;;;;;;1999.90;999.90;;;20.80;75.00;;;;;;5043378;28;20104;-73
2022/07/16 01:13:50;;;;;;;1999.90;999.90;;;20.80;75.00;;;;;;5052319;28;20104;-74
2022/07/16 01:16:17;;;;;;;1999.90;999.90;;;20.80;75.10;;;;;;5052338;28;20399;-74
2022/07/16 01:18:44;;;;;;;1999.90;999.90;;;20.80;74.90;;;;;;5051511;28;20029;-74
2022/07/16 01:21:10;;;;;;;1999.90;999.90;;;20.70;75.00;;;;;;5052757;28;20037;-74
2022/07/16 01:23:36;;;;;;;1999.90;999.90;;;20.60;75.30;;;;;;5051566;28;20028;-73
2022/07/16 01:26:02;;;;;;;1999.90;999.90;;;20.60;75.30;;;;;;5052707;28;20024;-74
2022/07/16 01:28:27;;;;;;;1999.90;999.90;;;20.70;75.20;;;;;;5052538;28;20028;-74
2022/07/16 01:30:53;;;;;;;1999.90;999.90;;;20.60;75.30;;;;;;5052283;28;20053;-74
2022/07/16 01:33:24;;;;;;;1999.90;999.90;;;20.60;75.50;;;;;;5050872;28;20134;-73
2022/07/16 01:35:51;;;;;;;1999.90;999.90;;;20.50;75.60;;;;;;5039871;28;20013;-74
2022/07/16 01:38:17;;;;;;;1999.90;999.90;;;20.40;76.00;;;;;;5052241;28;20094;-74
2022/07/16 01:40:43;;;;;;;1999.90;999.90;;;20.30;76.40;;;;;;5052315;28;20076;-74
2022/07/16 01:43:18;;;;;;;1999.90;999.90;;;20.30;76.40;;;;;;5052075;28;20430;-74
2022/07/16 01:45:44;;;;;;;1999.90;999.90;;;20.20;76.60;;;;;;5052400;28;20055;-74
2022/07/16 01:48:11;;;;;;;1999.90;999.90;;;20.20;76.60;;;;;;5052483;28;20024;-74
2022/07/16 01:50:36;;;;;;;1999.90;999.90;;;20.20;76.60;;;;;;5061383;28;20048;-74
2022/07/16 01:53:03;;;;;;;1999.90;999.90;;;20.20;76.50;;;;;;5063519;28;20553;-74
2022/07/16 01:55:29;;;;;;;1999.90;999.90;;;20.20;76.40;;;;;;5056005;28;20054;-74
2022/07/16 01:57:54;;;;;;;1999.90;999.90;;;20.20;76.40;;;;;;5056623;28;20476;-74
2022/07/16 02:00:20;;;;;;;1999.90;999.90;;;20.20;76.30;;;;;;5056150;28;20112;-74
2022/07/16 02:02:46;;;;;;;1999.90;999.90;;;20.20;76.20;;;;;;5054271;28;20483;-74
2022/07/16 02:05:12;;;;;;;1999.90;999.90;;;20.20;76.60;;;;;;5056035;28;20030;-74
2022/07/16 02:07:39;;;;;;;1999.90;999.90;;;20.10;76.70;;;;;;5056296;28;20167;-74
2022/07/16 02:10:04;;;;;;;1999.90;999.90;;;20.00;76.90;;;;;;5053410;28;20048;-73
2022/07/16 02:12:30;;;;;;;1999.90;999.90;;;20.00;77.20;;;;;;5049030;28;20057;-74
2022/07/16 02:14:56;;;;;;;1999.90;999.90;;;19.80;77.50;;;;;;5055892;28;20029;-73
2022/07/16 02:17:21;;;;;;;1999.90;999.90;;;19.80;78.10;;;;;;5055409;28;20070;-74
2022/07/16 02:19:47;;;;;;;1999.90;999.90;;;19.70;78.30;;;;;;5055805;28;20078;-74
2022/07/16 02:22:14;;;;;;;1999.90;999.90;;;19.60;78.60;;;;;;5037455;28;20025;-74
2022/07/16 02:24:40;;;;;;;1999.90;999.90;;;19.60;78.70;;;;;;5055484;28;20074;-74
2022/07/16 02:27:06;;;;;;;1999.90;999.90;;;19.50;78.70;;;;;;5055629;28;20013;-74
2022/07/16 02:29:32;;;;;;;1999.90;999.90;;;19.50;79.20;;;;;;5055404;28;20492;-74
2022/07/16 02:31:58;;;;;;;1999.90;999.90;;;19.40;79.00;;;;;;5055158;28;20033;-74
2022/07/16 02:34:23;;;;;;;1999.90;999.90;;;19.40;79.30;;;;;;5048523;28;20037;-74
2022/07/16 02:36:49;;;;;;;1999.90;999.90;;;19.30;79.20;;;;;;5048139;28;20056;-74
2022/07/16 02:39:15;;;;;;;1999.90;999.90;;;19.30;79.50;;;;;;5055340;28;20033;-73
2022/07/16 02:41:40;;;;;;;1999.90;999.90;;;19.30;79.70;;;;;;5047904;28;20024;-74
2022/07/16 02:44:06;;;;;;;1999.90;999.90;;;19.20;79.80;;;;;;5053859;28;20043;-73
2022/07/16 02:46:32;;;;;;;1999.90;999.90;;;19.20;79.90;;;;;;5055644;28;20403;-74
2022/07/16 02:48:58;;;;;;;1999.90;999.90;;;19.20;79.80;;;;;;5037350;28;20025;-74
2022/07/16 02:51:23;;;;;;;1999.90;999.90;;;19.10;79.90;;;;;;5067259;28;20028;-74
2022/07/16 02:53:49;;;;;;;1999.90;999.90;;;19.10;79.80;;;;;;5055678;28;20036;-74
2022/07/16 02:56:15;;;;;;;1999.90;999.90;;;19.10;80.10;;;;;;5055376;28;20056;-74
2022/07/16 02:58:40;;;;;;;1999.90;999.90;;;19.10;80.20;;;;;;5055129;28;20060;-73
2022/07/16 03:01:06;;;;;;;1999.90;999.90;;;19.10;80.20;;;;;;5054417;28;20071;-74
2022/07/16 03:03:32;;;;;;;1999.90;999.90;;;19.00;80.20;;;;;;5053299;28;20108;-73
2022/07/16 03:05:57;;;;;;;1999.90;999.90;;;19.00;80.20;;;;;;5053744;28;20153;-74
2022/07/16 03:08:23;;;;;;;1999.90;999.90;;;19.00;80.60;;;;;;5055048;28;20025;-74
2022/07/16 03:10:49;;;;;;;1999.90;999.90;;;18.90;80.50;;;;;;5054560;28;20025;-73
2022/07/16 03:13:15;;;;;;;1999.90;999.90;;;18.90;80.80;;;;;;5055090;28;20036;-73
2022/07/16 03:15:41;;;;;;;1999.90;999.90;;;18.80;81.20;;;;;;5055049;28;20021;-73
2022/07/16 03:18:06;;;;;;;1999.90;999.90;;;18.80;81.30;;;;;;5053990;28;20395;-74
2022/07/16 03:20:32;;;;;;;1999.90;999.90;;;18.80;81.20;;;;;;5054822;28;20036;-74
2022/07/16 03:22:58;;;;;;;1999.90;999.90;;;18.70;81.30;;;;;;5054510;28;20036;-73
2022/07/16 03:25:23;;;;;;;1999.90;999.90;;;18.70;81.30;;;;;;5054459;28;20507;-74
2022/07/16 03:27:49;;;;;;;1999.90;999.90;;;18.60;81.30;;;;;;5054611;28;20021;-73
2022/07/16 03:30:15;;;;;;;1999.90;999.90;;;18.60;81.70;;;;;;5054622;28;20167;-73
2022/07/16 03:32:41;;;;;;;1999.90;999.90;;;18.60;81.70;;;;;;5052509;28;20419;-73
2022/07/16 03:35:08;;;;;;;1999.90;999.90;;;18.60;81.50;;;;;;5054571;28;20373;-74
2022/07/16 03:38:57;;;;;;;1999.90;999.90;;;18.60;81.50;;;;;;5054480;28;20033;-73
2022/07/16 03:40:20;;;;;;;1999.90;999.90;;;18.60;81.40;;;;;;5047980;28;20029;-73
2022/07/16 03:42:46;;;;;;;1999.90;999.90;;;18.60;81.40;;;;;;5054303;28;20086;-73
2022/07/16 03:45:12;;;;;;;1999.90;999.90;;;18.60;81.50;;;;;;5054406;28;20018;-73
2022/07/16 03:47:37;;;;;;;1999.90;999.90;;;18.60;81.80;;;;;;5054396;28;20498;-73
2022/07/16 03:50:03;;;;;;;1999.90;999.90;;;18.50;81.40;;;;;;5054763;28;20029;-74
2022/07/16 03:52:29;;;;;;;1999.90;999.90;;;18.50;81.50;;;;;;5065877;28;20025;-73
2022/07/16 03:54:55;;;;;;;1999.90;999.90;;;18.40;81.90;;;;;;5054061;28;20024;-73
2022/07/16 03:57:20;;;;;;;1999.90;999.90;;;18.40;82.10;;;;;;5054260;28;20028;-73
2022/07/16 03:59:46;;;;;;;1999.90;999.90;;;18.40;82.50;;;;;;5054008;28;20044;-73
2022/07/16 04:02:11;;;;;;;1999.90;999.90;;;18.40;82.30;;;;;;5053281;28;20067;-73
2022/07/16 04:04:37;;;;;;;1999.90;999.90;;;18.40;82.10;;;;;;5052612;28;20108;-73
2022/07/16 04:07:03;;;;;;;1999.90;999.90;;;18.30;82.00;;;;;;5054165;28;20118;-73
2022/07/16 04:09:28;;;;;;;1999.90;999.90;;;18.30;82.00;;;;;;5053523;28;20049;-73
2022/07/16 04:11:55;;;;;;;1999.90;999.90;;;18.30;82.10;;;;;;5043352;28;20491;-73
2022/07/16 04:14:21;;;;;;;1999.90;999.90;;;18.30;82.10;;;;;;5053126;28;20111;-73
2022/07/16 04:16:47;;;;;;;1999.90;999.90;;;18.30;82.00;;;;;;5053640;28;20120;-74
2022/07/16 04:19:12;;;;;;;1999.90;999.90;;;18.20;82.10;;;;;;5052996;28;20036;-73
2022/07/16 04:21:38;;;;;;;1999.90;999.90;;;18.20;82.10;;;;;;5053631;28;20025;-73
2022/07/16 04:24:04;;;;;;;1999.90;999.90;;;18.20;82.10;;;;;;5053269;28;20112;-73
2022/07/16 04:26:30;;;;;;;1999.90;999.90;;;18.20;82.20;;;;;;5053589;28;20036;-73
2022/07/16 04:28:56;;;;;;;1999.90;999.90;;;18.20;82.00;;;;;;5053485;28;20031;-73
2022/07/16 04:31:23;;;;;;;1999.90;999.90;;;18.20;82.20;;;;;;5053187;28;20136;-73
2022/07/16 04:33:48;;;;;;;1999.90;999.90;;;18.20;82.00;;;;;;5051531;28;20096;-73
2022/07/16 04:36:14;;;;;;;1999.90;999.90;;;18.20;82.00;;;;;;5053470;28;20440;-73
2022/07/16 04:38:40;;;;;;;1999.90;999.90;;;18.20;82.10;;;;;;5046176;28;20096;-73
2022/07/16 04:41:06;;;;;;;1999.90;999.90;;;18.30;82.00;;;;;;5053422;28;20040;-73
2022/07/16 04:43:31;;;;;;;1999.90;999.90;;;18.30;81.90;;;;;;5053278;28;20044;-73
2022/07/16 04:45:57;;;;;;;1999.90;999.90;;;18.30;82.00;;;;;;5053459;28;20361;-73
2022/07/16 04:48:22;;;;;;;1999.90;999.90;;;18.30;81.90;;;;;;5053191;28;20409;-74
2022/07/16 04:50:48;;;;;;;1999.90;999.90;;;18.30;81.90;;;;;;5060259;28;20021;-74
2022/07/16 04:53:14;;;;;;;1999.90;999.90;;;18.30;81.70;;;;;;5058558;28;20498;-73
2022/07/16 04:55:39;;;;;;;1999.90;999.90;;;18.30;81.90;;;;;;5053066;28;20025;-73
2022/07/16 04:58:05;;;;;;;1999.90;999.90;;;18.30;82.10;;;;;;5053214;28;20025;-74
2022/07/16 05:00:31;;;;;;;1999.90;999.90;;;18.30;81.90;;;;;;5053034;28;20087;-73
2022/07/16 05:02:56;;;;;;;1999.90;999.90;;;18.30;82.00;;;;;;5051070;28;20025;-73
2022/07/16 05:05:23;;;;;;;1999.90;999.90;;;18.30;81.90;;;;;;5052920;28;20071;-73
2022/07/16 05:07:49;;;;;;;1999.90;999.90;;;18.30;82.00;;;;;;5034846;28;20025;-73
2022/07/16 05:10:16;;;;;;;1999.90;999.90;;;18.40;82.10;;;;;;5048962;28;20028;-73
2022/07/16 05:12:41;;;;;;;1999.90;999.90;;;18.40;82.50;;;;;;5047691;28;20070;-73
2022/07/16 05:15:08;;;;;;;1999.90;999.90;;;18.40;82.20;;;;;;5052907;28;20021;-73
2022/07/16 05:17:34;;;;;;;1999.90;999.90;;;18.40;82.10;;;;;;5052484;28;20029;-73
2022/07/16 05:19:59;;;;;;;1999.90;999.90;;;18.40;82.10;;;;;;5052086;28;20017;-73
2022/07/16 05:22:25;;;;;;;1999.90;999.90;;;18.40;81.80;;;;;;5052373;28;20036;-73
2022/07/16 05:24:51;;;;;;;1999.90;999.90;;;18.50;81.90;;;;;;5052310;28;20036;-74
2022/07/16 05:27:16;;;;;;;1999.90;999.90;;;18.60;82.10;;;;;;5052352;28;20024;-73
2022/07/16 05:29:42;;;;;;;1999.90;999.90;;;18.60;82.00;;;;;;5052582;28;20491;-74
2022/07/16 05:32:08;;;;;;;1999.90;999.90;;;18.60;82.00;;;;;;5063987;28;20025;-73
2022/07/16 05:34:33;;;;;;;1999.90;999.90;;;18.70;82.00;;;;;;5051016;28;20037;-73
2022/07/16 05:36:59;;;;;;;1999.90;999.90;;;18.70;81.80;;;;;;5052269;28;20025;-73
2022/07/16 05:39:25;;;;;;;1999.90;999.90;;;18.80;81.70;;;;;;5052294;28;20476;-73
2022/07/16 05:41:50;;;;;;;1999.90;999.90;;;18.90;81.60;;;;;;5044079;28;20091;-73
2022/07/16 05:44:16;;;;;;;1999.90;999.90;;;18.90;81.50;;;;;;5052476;28;20029;-74
2022/07/16 05:46:42;;;;;;;1999.90;999.90;;;19.00;81.70;;;;;;5052582;28;20387;-74
2022/07/16 05:49:07;;;;;;;1999.90;999.90;;;19.10;81.50;;;;;;5051900;28;20457;-73
2022/07/16 05:51:33;;;;;;;1999.90;999.90;;;19.20;80.80;;;;;;5059851;28;20029;-73
2022/07/16 05:53:58;;;;;;;1999.90;999.90;;;19.30;80.50;;;;;;5034395;28;20033;-74
2022/07/16 05:56:24;;;;;;;1999.90;999.90;;;19.40;80.20;;;;;;5052478;28;20025;-74
2022/07/16 05:58:50;;;;;;;1999.90;999.90;;;19.50;79.80;;;;;;5052751;28;20056;-74
2022/07/16 06:01:15;;;;;;;1999.90;999.90;;;19.60;79.20;;;;;;5052251;28;20032;-74
2022/07/16 06:03:41;;;;;;;1999.90;999.90;;;19.70;79.30;;;;;;5050677;28;20496;-74
2022/07/16 06:06:06;;;;;;;1999.90;999.90;;;19.80;79.10;;;;;;5050314;28;20477;-74
2022/07/16 06:08:32;;;;;;;1999.90;999.90;;;19.80;78.80;;;;;;5050863;28;20396;-73
2022/07/16 06:10:59;;;;;;;1999.90;999.90;;;19.90;78.50;;;;;;5052267;28;20017;-74
2022/07/16 06:13:25;;;;;;;1999.90;999.90;;;20.00;78.30;;;;;;5039050;28;20119;-73
2022/07/16 06:15:50;;;;;;;1999.90;999.90;;;20.10;77.80;;;;;;5052263;28;20021;-73
2022/07/16 06:18:16;;;;;;;1999.90;999.90;;;20.20;77.90;;;;;;5033571;28;20114;-73
2022/07/16 06:20:42;;;;;;;1999.90;999.90;;;20.30;77.40;;;;;;5051480;28;20449;-73
2022/07/16 06:23:08;;;;;;;1999.90;999.90;;;20.30;77.10;;;;;;5051943;28;20038;-73
2022/07/16 06:25:33;;;;;;;1999.90;999.90;;;20.50;77.00;;;;;;5051966;28;20036;-73
2022/07/16 06:27:59;;;;;;;1999.90;999.90;;;20.60;76.60;;;;;;5051761;28;20025;-74
2022/07/16 06:30:25;;;;;;;1999.90;999.90;;;20.70;76.10;;;;;;5052111;28;20103;-73
2022/07/16 06:32:55;;;;;;;1999.90;999.90;;;20.80;76.30;;;;;;5050253;28;20099;-73
2022/07/16 06:35:21;;;;;;;1999.90;999.90;;;20.90;76.30;;;;;;5039751;28;20032;-73
2022/07/16 06:37:46;;;;;;;1999.90;999.90;;;21.00;76.30;;;;;;5037601;28;20119;-73
2022/07/16 06:40:12;;;;;;;1999.90;999.90;;;21.10;76.10;;;;;;5055288;28;20039;-73
2022/07/16 06:42:38;;;;;;;1999.90;999.90;;;21.20;75.60;;;;;;5055550;28;20033;-73
2022/07/16 06:45:04;;;;;;;1999.90;999.90;;;21.30;75.80;;;;;;5055605;28;20092;-74
2022/07/16 06:47:30;;;;;;;1999.90;999.90;;;21.40;75.30;;;;;;5055694;28;20370;-74
2022/07/16 06:49:56;;;;;;;1999.90;999.90;;;21.50;74.90;;;;;;5049543;28;20072;-73
2022/07/16 06:52:21;;;;;;;1999.90;999.90;;;21.60;75.00;;;;;;5068310;28;20025;-73
2022/07/16 06:54:47;;;;;;;1999.90;999.90;;;21.70;74.80;;;;;;5055360;28;20496;-73
2022/07/16 06:57:13;;;;;;;1999.90;999.90;;;21.90;74.50;;;;;;5055381;28;20115;-74
2022/07/16 06:59:38;;;;;;;1999.90;999.90;;;22.00;73.90;;;;;;5055386;28;20087;-73
2022/07/16 07:02:04;;;;;;;1999.90;999.90;;;22.20;74.00;;;;;;5054913;28;20486;-74
2022/07/16 07:04:30;;;;;;;1999.90;999.90;;;22.30;73.40;;;;;;5053259;28;20025;-73
2022/07/16 07:06:55;;;;;;;1999.90;999.90;;;22.50;73.10;;;;;;5055387;28;20024;-74
2022/07/16 07:09:21;;;;;;;1999.90;999.90;;;22.60;72.00;;;;;;5054859;28;20052;-73
2022/07/16 07:11:47;;;;;;;1999.90;999.90;;;22.70;72.30;;;;;;5054789;28;20476;-74
2022/07/16 07:14:12;;;;;;;1999.90;999.90;;;22.90;71.90;;;;;;5054081;28;20039;-74
2022/07/16 07:16:38;;;;;;;1999.90;999.90;;;23.00;71.30;;;;;;5054865;28;20040;-74
2022/07/16 07:19:04;;;;;;;1999.90;999.90;;;23.10;71.30;;;;;;5054730;28;20025;-74
2022/07/16 07:21:29;;;;;;;1999.90;999.90;;;23.30;71.10;;;;;;5053900;28;20476;-73
2022/07/16 07:23:55;;;;;;;1999.90;999.90;;;23.40;70.50;;;;;;5054504;28;20025;-73
2022/07/16 07:26:21;;;;;;;1999.90;999.90;;;23.40;70.40;;;;;;5054678;28;20031;-74
2022/07/16 07:28:46;;;;;;;1999.90;999.90;;;23.50;69.90;;;;;;5054758;28;20013;-74
2022/07/16 07:31:12;;;;;;;1999.90;999.90;;;23.60;70.40;;;;;;5055036;28;20052;-73
2022/07/16 07:33:38;;;;;;;1999.90;999.90;;;23.80;70.50;;;;;;5052563;28;20036;-74
2022/07/16 07:36:04;;;;;;;1999.90;999.90;;;24.00;69.70;;;;;;5041261;28;20032;-74
2022/07/16 07:38:30;;;;;;;1999.90;999.90;;;24.20;69.80;;;;;;5054528;28;20051;-74
2022/07/16 07:40:55;;;;;;;1999.90;999.90;;;24.70;68.20;;;;;;5052796;28;20032;-74
2022/07/16 07:43:21;;;;;;;1999.90;999.90;;;25.60;67.40;;;;;;5047232;28;20033;-74
2022/07/16 07:45:47;;;;;;;1999.90;999.90;;;27.90;64.90;;;;;;5054365;28;20036;-74
2022/07/16 07:48:13;;;;;;;1999.90;999.90;;;29.20;63.10;;;;;;5054162;28;20106;-74
2022/07/16 07:50:39;;;;;;;1999.90;999.90;;;30.30;61.40;;;;;;5054399;28;20491;-74
2022/07/16 07:53:05;;;;;;;1999.90;999.90;;;31.10;60.30;;;;;;5061149;28;20021;-74
2022/07/16 07:55:31;;;;;;;1999.90;999.90;;;31.40;59.70;;;;;;5053976;28;20112;-74
2022/07/16 07:57:56;;;;;;;1999.90;999.90;;;31.70;59.20;;;;;;5054150;28;20100;-74
2022/07/16 08:00:22;;;;;;;1999.90;999.90;;;32.00;59.00;;;;;;5035693;28;20029;-74
2022/07/16 08:02:48;;;;;;;1999.90;999.90;;;32.60;58.70;;;;;;5051994;28;20083;-74
2022/07/16 08:05:15;;;;;;;1999.90;999.90;;;32.90;58.00;;;;;;5053574;28;20100;-74
2022/07/16 08:07:41;;;;;;;1999.90;999.90;;;33.20;57.90;;;;;;5054131;28;20092;-74
2022/07/16 08:10:08;;;;;;;1999.90;999.90;;;33.90;57.80;;;;;;5050858;28;20052;-71
2022/07/16 08:12:34;;;;;;;1999.90;999.90;;;34.10;57.50;;;;;;5046910;28;20021;-72
2022/07/16 08:15:00;;;;;;;1999.90;999.90;;;34.40;56.80;;;;;;5053832;28;20047;-72
2022/07/16 08:17:26;;;;;;;1999.90;999.90;;;34.40;57.00;;;;;;5053491;28;20021;-72
2022/07/16 08:19:51;;;;;;;1999.90;999.90;;;34.20;57.00;;;;;;5053454;28;20399;-72
2022/07/16 08:22:17;;;;;;;1999.90;999.90;;;34.10;56.40;;;;;;5052859;28;20028;-72
2022/07/16 08:27:27;;;;;;;1999.90;999.90;;;34.30;56.70;;;;;;5053497;28;20048;-72
2022/07/16 08:29:52;;;;;;;1999.90;999.90;;;35.20;56.00;;;;;;5053628;28;20041;-72
2022/07/16 08:32:18;;;;;;;1999.90;999.90;;;35.60;55.80;;;;;;5035115;28;20415;-72
2022/07/16 08:34:44;;;;;;;1999.90;999.90;;;35.90;55.40;;;;;;5043977;28;20044;-72
2022/07/16 08:37:11;;;;;;;1999.90;999.90;;;36.10;55.60;;;;;;5048824;28;20036;-72
2022/07/16 08:39:44;;;;;;;1999.90;999.90;;;35.80;55.30;;;;;;5053076;28;20506;-72
2022/07/16 08:42:11;;;;;;;1999.90;999.90;;;35.80;55.10;;;;;;5034516;28;20428;-72
2022/07/16 08:44:41;;;;;;;1999.90;999.90;;;36.10;55.20;;;;;;5053153;28;20036;-72
2022/07/16 08:47:10;;;;;;;1999.90;999.90;;;36.20;55.10;;;;;;5053150;28;20159;-72
2022/07/16 08:49:37;;;;;;;1999.90;999.90;;;36.20;55.00;;;;;;5049084;28;20017;-72
2022/07/16 08:52:06;;;;;;;1999.90;999.90;;;36.60;54.40;;;;;;5064755;28;20116;-72
2022/07/16 08:54:33;;;;;;;1999.90;999.90;;;36.90;54.50;;;;;;5052963;28;20078;-72
2022/07/16 08:56:59;;;;;;;1999.90;999.90;;;37.10;54.00;;;;;;5053085;28;20029;-73
2022/07/16 08:59:29;;;;;;;1999.90;999.90;;;36.30;53.90;;;;;;5052599;28;20051;-73
2022/07/16 09:01:55;;;;;;;1999.90;999.90;;;36.30;54.20;;;;;;5052535;28;20025;-72
2022/07/16 09:04:20;;;;;;;1999.90;999.90;;;36.50;54.40;;;;;;5050685;28;20571;-73
2022/07/16 09:06:46;;;;;;;1999.90;999.90;;;36.70;54.20;;;;;;5052305;28;20048;-73
2022/07/16 09:09:12;;;;;;;1999.90;999.90;;;37.10;53.90;;;;;;5052782;28;20032;-73
2022/07/16 09:11:38;;;;;;;1999.90;999.90;;;37.80;53.60;;;;;;5042944;28;20052;-73
2022/07/16 09:14:11;;;;;;;1999.90;999.90;;;37.90;53.60;;;;;;5052938;28;20464;-73
2022/07/16 09:16:47;;;;;;;1999.90;999.90;;;37.80;53.90;;;;;;5034530;28;20394;-72
2022/07/16 09:19:16;;;;;;;1999.90;999.90;;;37.80;53.80;;;;;;5052766;28;20404;-73
2022/07/16 09:22:02;;;;;;;1999.90;999.90;;;37.60;53.90;;;;;;5051635;28;20048;-72
2022/07/16 09:24:41;;;;;;;1999.90;999.90;;;37.50;53.50;;;;;;5052361;28;20075;-73
2022/07/16 09:27:13;;;;;;;1999.90;999.90;;;37.20;53.30;;;;;;5052660;28;20029;-73
2022/07/16 09:29:58;;;;;;;1999.90;999.90;;;37.90;53.60;;;;;;5034525;28;20410;-72
2022/07/16 09:32:36;;;;;;;1999.90;999.90;;;38.60;53.90;;;;;;5051106;28;20527;-73
2022/07/16 09:35:10;;;;;;;1999.90;999.90;;;38.50;53.00;;;;;;5032756;28;20387;-74
2022/07/16 09:37:53;;;;;;;1999.90;999.90;;;38.50;53.00;;;;;;5052404;28;20487;-73
2022/07/16 09:40:32;;;;;;;1999.90;999.90;;;38.70;53.10;;;;;;5046737;28;20021;-73
2022/07/16 09:42:59;;;;;;;1999.90;999.90;;;38.70;53.10;;;;;;5052347;28;20021;-72
2022/07/16 09:45:25;;;;;;;1999.90;999.90;;;38.80;52.90;;;;;;5052587;28;20031;-73
2022/07/16 09:47:50;;;;;;;1999.90;999.90;;;39.00;52.90;;;;;;5052470;28;20476;-73
2022/07/16 09:50:16;;;;;;;1999.90;999.90;;;38.80;52.50;;;;;;5049311;28;20095;-73
2022/07/16 09:52:42;;;;;;;1999.90;999.90;;;37.70;52.60;;;;;;5062435;28;20056;-73
2022/07/16 09:55:08;;;;;;;1999.90;999.90;;;37.80;52.80;;;;;;5052184;28;20025;-73
2022/07/16 09:57:35;;;;;;;1999.90;999.90;;;38.00;53.00;;;;;;5052327;28;20025;-72
2022/07/16 10:00:00;;;;;;;1999.90;999.90;;;38.00;52.90;;;;;;5052370;28;20131;-73
2022/07/16 10:02:28;;;;;;;1999.90;999.90;;;38.60;52.70;;;;;;5051063;28;20495;-73
2022/07/16 10:04:53;;;;;;;1999.90;999.90;;;38.50;52.30;;;;;;5050087;28;20392;-73
2022/07/16 10:07:19;;;;;;;1999.90;999.90;;;38.60;52.40;;;;;;5052242;28;20021;-73
2022/07/16 10:09:46;;;;;;;1999.90;999.90;;;38.60;52.20;;;;;;5051895;28;20032;-72
2022/07/16 10:12:14;;;;;;;1999.90;999.90;;;38.60;52.20;;;;;;5055667;28;20036;-72
2022/07/16 10:14:44;;;;;;;1999.90;999.90;;;38.50;52.10;;;;;;5055364;28;20029;-72
2022/07/16 10:17:21;;;;;;;1999.90;999.90;;;37.90;52.50;;;;;;5055862;28;20025;-73
2022/07/16 10:19:58;;;;;;;1999.90;999.90;;;37.70;52.10;;;;;;5055831;28;20041;-72
2022/07/16 10:22:30;;;;;;;1999.90;999.90;;;38.00;52.50;;;;;;5055053;28;20029;-73
2022/07/16 10:24:56;;;;;;;1999.90;999.90;;;37.80;52.70;;;;;;5055693;28;20060;-72
2022/07/16 10:27:34;;;;;;;1999.90;999.90;;;38.40;52.10;;;;;;5055745;28;20049;-73
2022/07/16 10:30:27;;;;;;;1999.90;999.90;;;38.60;51.70;;;;;;5037739;28;20450;-73
2022/07/16 10:33:12;;;;;;;1999.90;999.90;;;38.80;52.30;;;;;;5045797;28;20044;-73
2022/07/16 10:35:38;;;;;;;1999.90;999.90;;;39.10;51.80;;;;;;5055588;28;20021;-72
2022/07/16 10:38:14;;;;;;;1999.90;999.90;;;39.00;51.50;;;;;;5052275;28;20097;-74
2022/07/16 10:40:42;;;;;;;1999.90;999.90;;;39.10;51.60;;;;;;5051901;28;20483;-73
2022/07/16 10:43:14;;;;;;;1999.90;999.90;;;38.70;51.30;;;;;;5055458;28;20032;-74
2022/07/16 10:45:49;;;;;;;;;;;38.40;51.40;;;;;;5055877;28;20021;-74
2022/07/16 10:48:15;;;;;;;1999.90;999.90;;;38.40;51.60;;;;;;5055486;28;19911;-73
2022/07/16 10:51:17;;;;;;;1999.90;999.90;;;38.50;51.80;;;;;;5055673;28;20096;-73
2022/07/16 10:53:57;;;;;;;1999.90;999.90;;;38.60;51.30;;;;;;5056664;28;20037;-73
2022/07/16 10:56:46;;;;;;;1999.90;999.90;;;38.00;51.40;;;;;;5055305;28;20025;-74
2022/07/16 10:59:17;;;;;;;1999.90;999.90;;;38.40;51.30;;;;;;5055621;28;20032;-74
2022/07/16 11:01:45;;;;;;;;;;;38.50;51.80;;;;;;5052629;28;20021;-73
2022/07/16 11:04:12;;;;;;;1999.90;999.90;;;37.80;51.50;;;;;;5052768;28;19935;-72
2022/07/16 11:06:39;;;;;;;1999.90;999.90;;;37.60;52.20;;;;;;5053094;28;20079;-73
2022/07/16 11:09:06;;;;;;;1999.90;999.90;;;37.90;52.50;;;;;;5036951;28;20067;-74
2022/07/16 11:11:34;;;;;;;1999.90;999.90;;;38.10;52.10;;;;;;5054652;28;20024;-73
2022/07/16 11:14:01;;;;;;;1999.90;999.90;;;38.30;52.20;;;;;;5037070;28;20036;-73
2022/07/16 11:16:27;;;;;;;1999.90;999.90;;;38.60;51.80;;;;;;5054601;28;20025;-73
2022/07/16 11:18:53;;;;;;;1999.90;999.90;;;38.20;51.80;;;;;;5054856;28;20480;-73
2022/07/16 11:21:18;;;;;;;1999.90;999.90;;;38.10;52.00;;;;;;5054210;28;20074;-74
2022/07/16 11:23:56;;;;;;;1999.90;999.90;;;38.00;51.60;;;;;;5053755;28;20021;-73
2022/07/16 11:26:23;;;;;;;1999.90;999.90;;;38.20;51.20;;;;;;5054778;28;20028;-73
2022/07/16 11:28:58;;;;;;;1999.90;999.90;;;38.50;52.00;;;;;;5054699;28;20392;-73
2022/07/16 11:31:30;;;;;;;1999.90;999.90;;;38.20;51.40;;;;;;5053967;28;20048;-74
2022/07/16 11:34:06;;;;;;;1999.90;999.90;;;38.40;52.20;;;;;;5052546;28;20114;-74
2022/07/16 11:36:43;;;;;;;1999.90;999.90;;;38.40;51.80;;;;;;5054562;28;20060;-74
2022/07/16 11:39:13;;;;;;;1999.90;999.90;;;38.10;51.50;;;;;;5046449;28;20025;-73
2022/07/16 11:41:44;;;;;;;1999.90;999.90;;;38.20;51.90;;;;;;5054576;28;20477;-74
2022/07/16 11:44:25;;;;;;;1999.90;999.90;;;38.50;51.80;;;;;;5054161;28;20024;-72
2022/07/16 11:47:06;;;;;;;1999.90;999.90;;;38.30;51.60;;;;;;5054292;28;20491;-73
2022/07/16 11:49:37;;;;;;;1999.90;999.90;;;38.00;51.80;;;;;;5050513;28;20147;-72
2022/07/16 11:52:04;;;;;;;1999.90;999.90;;;38.00;52.20;;;;;;5065772;28;20395;-74
2022/07/16 11:54:35;;;;;;;1999.90;999.90;;;37.70;51.60;;;;;;5053506;28;20111;-72
2022/07/16 11:57:02;;;;;;;1999.90;999.90;;;37.40;52.40;;;;;;5054165;28;20029;-73
2022/07/16 11:59:31;;;;;;;1999.90;999.90;;;37.20;51.90;;;;;;5054220;28;20044;-73
2022/07/16 12:02:18;;;;;;;1999.90;999.90;;;36.70;52.30;;;;;;5053440;28;20558;-73
2022/07/16 12:04:50;;;;;;;1999.90;999.90;;;36.90;52.50;;;;;;5052684;28;20047;-73
2022/07/16 12:07:24;;;;;;;1999.90;999.90;;;37.00;51.80;;;;;;5053832;28;20029;-72